sensor_id;sensor_type;location;lat;lon;timestamp;temperature;humidity
18141;DHT22;9196;49.194;12.526;2023-05-07T00:01:39;13.70;99.90
18141;DHT22;9196;49.194;12.526;2023-05-07T00:04:06;13.60;99.90
18141;DHT22;9196;49.194;12.526;2023-05-07T00:06:33;13.60;99.90
18141;DHT22;9196;49.194;12.526;2023-05-07T00:09:01;13.60;99.90
18141;DHT22;9196;49.194;12.526;2023-05-07T00:11:29;13.50;99.90
18141;DHT22;9196;49.194;12.526;2023-05-07T00:13:56;13.60;99.90
18141;DHT22;9196;49.194;12.526;2023-05-07T00:16:23;13.70;99.90
18141;DHT22;9196;49.194;12.526;2023-05-07T00:18:50;13.60;99.90
18141;DHT22;9196;49.194;12.526;2023-05-07T00:21:16;13.70;99.90
18141;DHT22;9196;49.194;12.526;2023-05-07T00:23:43;13.60;99.90
18141;DHT22;9196;49.194;12.526;2023-05-07T00:26:11;13.60;99.90
18141;DHT22;9196;49.194;12.526;2023-05-07T00:28:38;13.60;99.90
18141;DHT22;9196;49.194;12.526;2023-05-07T00:31:05;13.50;99.90
18141;DHT22;9196;49.194;12.526;2023-05-07T00:33:31;13.50;99.90
18141;DHT22;9196;49.194;12.526;2023-05-07T00:35:58;13.50;99.90
18141;DHT22;9196;49.194;12.526;2023-05-07T00:38:26;13.40;99.90
18141;DHT22;9196;49.194;12.526;2023-05-07T00:40:53;13.40;99.90
18141;DHT22;9196;49.194;12.526;2023-05-07T00:43:21;13.30;99.90
18141;DHT22;9196;49.194;12.526;2023-05-07T00:45:48;13.30;99.90
18141;DHT22;9196;49.194;12.526;2023-05-07T00:48:15;13.20;99.90
18141;DHT22;9196;49.194;12.526;2023-05-07T00:50:43;13.10;99.90
18141;DHT22;9196;49.194;12.526;2023-05-07T00:53:10;12.90;99.90
18141;DHT22;9196;49.194;12.526;2023-05-07T00:55:37;12.90;99.90
18141;DHT22;9196;49.194;12.526;2023-05-07T00:58:04;12.90;99.90
18141;DHT22;9196;49.194;12.526;2023-05-07T01:00:32;12.90;99.90
18141;DHT22;9196;49.194;12.526;2023-05-07T01:02:59;12.80;99.90
18141;DHT22;9196;49.194;12.526;2023-05-07T01:05:27;12.80;99.90
18141;DHT22;9196;49.194;12.526;2023-05-07T01:07:55;12.80;99.90
18141;DHT22;9196;49.194;12.526;2023-05-07T01:10:22;12.80;99.90
18141;DHT22;9196;49.194;12.526;2023-05-07T01:12:50;12.70;99.90
18141;DHT22;9196;49.194;12.526;2023-05-07T01:15:18;12.80;99.90
18141;DHT22;9196;49.194;12.526;2023-05-07T01:17:46;12.80;99.90
18141;DHT22;9196;49.194;12.526;2023-05-07T01:20:13;12.80;99.90
18141;DHT22;9196;49.194;12.526;2023-05-07T01:22:43;12.80;99.90
18141;DHT22;9196;49.194;12.526;2023-05-07T01:25:10;12.70;99.90
18141;DHT22;9196;49.194;12.526;2023-05-07T01:27:37;12.60;99.90
18141;DHT22;9196;49.194;12.526;2023-05-07T01:30:04;12.60;99.90
18141;DHT22;9196;49.194;12.526;2023-05-07T01:32:35;12.60;99.90
18141;DHT22;9196;49.194;12.526;2023-05-07T01:35:03;12.50;99.90
18141;DHT22;9196;49.194;12.526;2023-05-07T01:37:32;12.60;99.90
18141;DHT22;9196;49.194;12.526;2023-05-07T01:40:01;12.60;99.90
18141;DHT22;9196;49.194;12.526;2023-05-07T01:42:29;12.50;99.90
18141;DHT22;9196;49.194;12.526;2023-05-07T01:44:56;12.50;99.90
18141;DHT22;9196;49.194;12.526;2023-05-07T01:47:23;12.50;99.90
18141;DHT22;9196;49.194;12.526;2023-05-07T01:49:50;12.40;99.90
18141;DHT22;9196;49.194;12.526;2023-05-07T01:52:17;12.50;99.90
18141;DHT22;9196;49.194;12.526;2023-05-07T01:54:44;12.50;99.90
18141;DHT22;9196;49.194;12.526;2023-05-07T01:57:12;12.40;99.90
18141;DHT22;9196;49.194;12.526;2023-05-07T01:59:39;12.30;99.90
18141;DHT22;9196;49.194;12.526;2023-05-07T02:02:06;12.40;99.90
18141;DHT22;9196;49.194;12.526;2023-05-07T02:04:32;12.30;99.90
18141;DHT22;9196;49.194;12.526;2023-05-07T02:06:59;12.30;99.90
18141;DHT22;9196;49.194;12.526;2023-05-07T02:09:26;12.30;99.90
18141;DHT22;9196;49.194;12.526;2023-05-07T02:11:53;12.40;99.90
18141;DHT22;9196;49.194;12.526;2023-05-07T02:14:21;12.40;99.90
18141;DHT22;9196;49.194;12.526;2023-05-07T02:16:48;12.40;99.90
18141;DHT22;9196;49.194;12.526;2023-05-07T02:19:15;12.30;99.90
18141;DHT22;9196;49.194;12.526;2023-05-07T02:21:42;12.30;99.90
18141;DHT22;9196;49.194;12.526;2023-05-07T02:24:08;12.40;99.90
18141;DHT22;9196;49.194;12.526;2023-05-07T02:26:35;12.30;99.90
18141;DHT22;9196;49.194;12.526;2023-05-07T02:29:02;12.40;99.90
18141;DHT22;9196;49.194;12.526;2023-05-07T02:31:30;12.40;99.90
18141;DHT22;9196;49.194;12.526;2023-05-07T02:33:59;12.40;99.90
18141;DHT22;9196;49.194;12.526;2023-05-07T02:36:26;12.30;99.90
18141;DHT22;9196;49.194;12.526;2023-05-07T02:38:53;12.30;99.90
18141;DHT22;9196;49.194;12.526;2023-05-07T02:41:20;12.30;99.90
18141;DHT22;9196;49.194;12.526;2023-05-07T02:43:47;12.30;99.90
18141;DHT22;9196;49.194;12.526;2023-05-07T02:46:13;12.40;99.90
18141;DHT22;9196;49.194;12.526;2023-05-07T02:48:42;12.40;99.90
18141;DHT22;9196;49.194;12.526;2023-05-07T02:51:09;12.30;99.90
18141;DHT22;9196;49.194;12.526;2023-05-07T02:53:36;12.30;99.90
18141;DHT22;9196;49.194;12.526;2023-05-07T02:56:03;12.30;99.90
18141;DHT22;9196;49.194;12.526;2023-05-07T02:58:31;12.30;99.90
18141;DHT22;9196;49.194;12.526;2023-05-07T03:06:56;12.30;99.90
18141;DHT22;9196;49.194;12.526;2023-05-07T03:09:23;12.10;99.90
18141;DHT22;9196;49.194;12.526;2023-05-07T03:11:50;12.10;99.90
18141;DHT22;9196;49.194;12.526;2023-05-07T03:14:17;12.10;99.90
18141;DHT22;9196;49.194;12.526;2023-05-07T03:16:43;12.20;99.90
18141;DHT22;9196;49.194;12.526;2023-05-07T03:19:10;12.20;99.90
18141;DHT22;9196;49.194;12.526;2023-05-07T03:21:37;12.10;99.90
18141;DHT22;9196;49.194;12.526;2023-05-07T03:24:06;12.00;99.90
18141;DHT22;9196;49.194;12.526;2023-05-07T03:26:33;12.10;99.90
18141;DHT22;9196;49.194;12.526;2023-05-07T03:28:59;12.10;99.90
18141;DHT22;9196;49.194;12.526;2023-05-07T03:31:26;12.10;99.90
18141;DHT22;9196;49.194;12.526;2023-05-07T03:33:54;12.20;99.90
18141;DHT22;9196;49.194;12.526;2023-05-07T03:36:22;12.20;99.90
18141;DHT22;9196;49.194;12.526;2023-05-07T03:38:49;12.30;99.90
18141;DHT22;9196;49.194;12.526;2023-05-07T03:41:17;12.30;99.90
18141;DHT22;9196;49.194;12.526;2023-05-07T03:43:45;12.30;99.90
18141;DHT22;9196;49.194;12.526;2023-05-07T03:46:12;12.30;99.90
18141;DHT22;9196;49.194;12.526;2023-05-07T03:48:39;12.40;99.90
18141;DHT22;9196;49.194;12.526;2023-05-07T03:51:06;12.40;99.90
18141;DHT22;9196;49.194;12.526;2023-05-07T03:53:33;12.40;99.90
18141;DHT22;9196;49.194;12.526;2023-05-07T03:55:59;12.40;99.90
18141;DHT22;9196;49.194;12.526;2023-05-07T03:58:28;12.30;99.90
18141;DHT22;9196;49.194;12.526;2023-05-07T04:00:54;12.20;99.90
18141;DHT22;9196;49.194;12.526;2023-05-07T04:03:21;12.30;99.90
18141;DHT22;9196;49.194;12.526;2023-05-07T04:05:48;12.30;99.90
18141;DHT22;9196;49.194;12.526;2023-05-07T04:08:15;12.20;99.90
18141;DHT22;9196;49.194;12.526;2023-05-07T04:10:42;12.30;99.90
18141;DHT22;9196;49.194;12.526;2023-05-07T04:13:08;12.30;99.90
18141;DHT22;9196;49.194;12.526;2023-05-07T04:15:37;12.30;99.90
18141;DHT22;9196;49.194;12.526;2023-05-07T04:18:04;12.30;99.90
18141;DHT22;9196;49.194;12.526;2023-05-07T04:20:30;12.30;99.90
18141;DHT22;9196;49.194;12.526;2023-05-07T04:23:01;12.30;99.90
18141;DHT22;9196;49.194;12.526;2023-05-07T04:25:28;12.40;99.90
18141;DHT22;9196;49.194;12.526;2023-05-07T04:27:55;12.50;99.90
18141;DHT22;9196;49.194;12.526;2023-05-07T04:30:22;12.50;99.90
18141;DHT22;9196;49.194;12.526;2023-05-07T04:32:50;12.50;99.90
18141;DHT22;9196;49.194;12.526;2023-05-07T04:35:17;12.50;99.90
18141;DHT22;9196;49.194;12.526;2023-05-07T04:37:43;12.60;99.90
18141;DHT22;9196;49.194;12.526;2023-05-07T04:40:10;12.60;99.90
18141;DHT22;9196;49.194;12.526;2023-05-07T04:42:37;12.60;99.90
18141;DHT22;9196;49.194;12.526;2023-05-07T04:45:05;12.70;99.90
18141;DHT22;9196;49.194;12.526;2023-05-07T04:47:32;12.80;99.90
18141;DHT22;9196;49.194;12.526;2023-05-07T04:50:00;12.90;99.90
18141;DHT22;9196;49.194;12.526;2023-05-07T04:52:27;13.00;99.90
18141;DHT22;9196;49.194;12.526;2023-05-07T04:54:54;13.00;99.90
18141;DHT22;9196;49.194;12.526;2023-05-07T04:57:21;13.00;99.90
18141;DHT22;9196;49.194;12.526;2023-05-07T04:59:48;13.00;99.90
18141;DHT22;9196;49.194;12.526;2023-05-07T05:02:15;12.90;99.90
18141;DHT22;9196;49.194;12.526;2023-05-07T05:04:42;12.90;99.90
18141;DHT22;9196;49.194;12.526;2023-05-07T05:07:10;12.90;99.90
18141;DHT22;9196;49.194;12.526;2023-05-07T05:09:37;12.80;99.90
18141;DHT22;9196;49.194;12.526;2023-05-07T05:12:04;12.80;99.90
18141;DHT22;9196;49.194;12.526;2023-05-07T05:14:32;12.80;99.90
18141;DHT22;9196;49.194;12.526;2023-05-07T05:16:59;12.80;99.90
18141;DHT22;9196;49.194;12.526;2023-05-07T05:19:26;12.80;99.90
18141;DHT22;9196;49.194;12.526;2023-05-07T05:21:53;12.70;99.90
18141;DHT22;9196;49.194;12.526;2023-05-07T05:24:21;12.70;99.90
18141;DHT22;9196;49.194;12.526;2023-05-07T05:26:48;12.80;99.90
18141;DHT22;9196;49.194;12.526;2023-05-07T05:29:14;12.80;99.90
18141;DHT22;9196;49.194;12.526;2023-05-07T05:31:41;12.80;99.90
18141;DHT22;9196;49.194;12.526;2023-05-07T05:34:08;12.80;99.90
18141;DHT22;9196;49.194;12.526;2023-05-07T05:36:35;13.00;99.90
18141;DHT22;9196;49.194;12.526;2023-05-07T05:39:01;13.00;99.90
18141;DHT22;9196;49.194;12.526;2023-05-07T05:41:30;13.10;99.90
18141;DHT22;9196;49.194;12.526;2023-05-07T05:43:57;13.20;99.90
18141;DHT22;9196;49.194;12.526;2023-05-07T05:46:24;13.30;99.90
18141;DHT22;9196;49.194;12.526;2023-05-07T05:48:51;13.30;99.90
18141;DHT22;9196;49.194;12.526;2023-05-07T05:51:17;13.40;99.90
18141;DHT22;9196;49.194;12.526;2023-05-07T05:53:44;13.40;99.90
18141;DHT22;9196;49.194;12.526;2023-05-07T05:56:11;13.40;99.90
18141;DHT22;9196;49.194;12.526;2023-05-07T05:58:39;13.30;99.90
18141;DHT22;9196;49.194;12.526;2023-05-07T06:01:06;13.40;99.90
18141;DHT22;9196;49.194;12.526;2023-05-07T06:03:33;13.50;99.90
18141;DHT22;9196;49.194;12.526;2023-05-07T06:06:00;13.50;99.90
18141;DHT22;9196;49.194;12.526;2023-05-07T06:08:29;13.60;99.90
18141;DHT22;9196;49.194;12.526;2023-05-07T06:10:56;13.60;99.90
18141;DHT22;9196;49.194;12.526;2023-05-07T06:13:23;13.70;99.90
18141;DHT22;9196;49.194;12.526;2023-05-07T06:15:51;13.60;99.90
18141;DHT22;9196;49.194;12.526;2023-05-07T06:18:18;13.70;99.90
18141;DHT22;9196;49.194;12.526;2023-05-07T06:20:45;13.80;99.90
18141;DHT22;9196;49.194;12.526;2023-05-07T06:23:11;13.80;99.90
18141;DHT22;9196;49.194;12.526;2023-05-07T06:25:38;13.90;99.90
18141;DHT22;9196;49.194;12.526;2023-05-07T06:28:06;13.90;99.90
18141;DHT22;9196;49.194;12.526;2023-05-07T06:30:33;14.00;99.90
18141;DHT22;9196;49.194;12.526;2023-05-07T06:33:02;14.00;99.90
18141;DHT22;9196;49.194;12.526;2023-05-07T06:35:29;14.10;99.90
18141;DHT22;9196;49.194;12.526;2023-05-07T06:37:55;14.30;99.90
18141;DHT22;9196;49.194;12.526;2023-05-07T06:40:22;14.50;99.90
18141;DHT22;9196;49.194;12.526;2023-05-07T06:42:49;14.70;99.90
18141;DHT22;9196;49.194;12.526;2023-05-07T06:45:16;14.80;99.90
18141;DHT22;9196;49.194;12.526;2023-05-07T06:47:42;14.90;99.90
18141;DHT22;9196;49.194;12.526;2023-05-07T06:50:11;14.90;99.90
18141;DHT22;9196;49.194;12.526;2023-05-07T06:52:38;15.00;99.90
18141;DHT22;9196;49.194;12.526;2023-05-07T06:55:06;15.00;99.90
18141;DHT22;9196;49.194;12.526;2023-05-07T06:57:33;15.20;99.90
18141;DHT22;9196;49.194;12.526;2023-05-07T07:00:00;15.20;99.90
18141;DHT22;9196;49.194;12.526;2023-05-07T07:02:26;15.40;99.90
18141;DHT22;9196;49.194;12.526;2023-05-07T07:04:53;15.50;99.90
18141;DHT22;9196;49.194;12.526;2023-05-07T07:07:21;15.60;99.90
18141;DHT22;9196;49.194;12.526;2023-05-07T07:09:49;15.80;99.90
18141;DHT22;9196;49.194;12.526;2023-05-07T07:12:16;15.90;99.90
18141;DHT22;9196;49.194;12.526;2023-05-07T07:14:43;15.90;99.90
18141;DHT22;9196;49.194;12.526;2023-05-07T07:17:10;15.90;99.90
18141;DHT22;9196;49.194;12.526;2023-05-07T07:19:37;15.80;99.90
18141;DHT22;9196;49.194;12.526;2023-05-07T07:22:04;15.80;99.90
18141;DHT22;9196;49.194;12.526;2023-05-07T07:24:33;15.70;99.90
18141;DHT22;9196;49.194;12.526;2023-05-07T07:26:59;15.70;99.90
18141;DHT22;9196;49.194;12.526;2023-05-07T07:29:26;15.60;99.90
18141;DHT22;9196;49.194;12.526;2023-05-07T07:31:53;15.50;99.90
18141;DHT22;9196;49.194;12.526;2023-05-07T07:34:20;15.50;99.90
18141;DHT22;9196;49.194;12.526;2023-05-07T07:36:46;15.30;99.90
18141;DHT22;9196;49.194;12.526;2023-05-07T07:39:13;15.10;99.90
18141;DHT22;9196;49.194;12.526;2023-05-07T07:41:42;15.20;99.90
18141;DHT22;9196;49.194;12.526;2023-05-07T07:44:09;15.40;99.90
18141;DHT22;9196;49.194;12.526;2023-05-07T07:46:38;15.40;99.90
18141;DHT22;9196;49.194;12.526;2023-05-07T07:49:05;15.30;99.90
18141;DHT22;9196;49.194;12.526;2023-05-07T07:51:31;15.40;99.90
18141;DHT22;9196;49.194;12.526;2023-05-07T07:53:58;15.50;99.90
18141;DHT22;9196;49.194;12.526;2023-05-07T07:56:26;15.60;99.90
18141;DHT22;9196;49.194;12.526;2023-05-07T07:58:54;15.50;99.90
18141;DHT22;9196;49.194;12.526;2023-05-07T08:01:21;15.50;99.90
18141;DHT22;9196;49.194;12.526;2023-05-07T08:03:48;15.60;99.90
18141;DHT22;9196;49.194;12.526;2023-05-07T08:06:14;15.60;99.90
18141;DHT22;9196;49.194;12.526;2023-05-07T08:08:41;15.80;99.90
18141;DHT22;9196;49.194;12.526;2023-05-07T08:11:08;15.80;99.90
18141;DHT22;9196;49.194;12.526;2023-05-07T08:13:35;15.90;99.90
18141;DHT22;9196;49.194;12.526;2023-05-07T08:16:03;16.00;99.90
18141;DHT22;9196;49.194;12.526;2023-05-07T08:18:30;16.10;99.90
18141;DHT22;9196;49.194;12.526;2023-05-07T08:20:57;16.10;99.90
18141;DHT22;9196;49.194;12.526;2023-05-07T08:23:24;16.30;99.90
18141;DHT22;9196;49.194;12.526;2023-05-07T08:25:51;16.40;99.90
18141;DHT22;9196;49.194;12.526;2023-05-07T08:28:17;16.50;99.90
18141;DHT22;9196;49.194;12.526;2023-05-07T08:30:45;16.50;99.90
18141;DHT22;9196;49.194;12.526;2023-05-07T08:33:13;16.50;99.90
18141;DHT22;9196;49.194;12.526;2023-05-07T08:35:40;16.60;99.90
18141;DHT22;9196;49.194;12.526;2023-05-07T08:38:07;16.70;99.90
18141;DHT22;9196;49.194;12.526;2023-05-07T08:40:36;16.80;99.90
18141;DHT22;9196;49.194;12.526;2023-05-07T08:43:05;16.80;99.90
18141;DHT22;9196;49.194;12.526;2023-05-07T08:45:33;16.90;99.90
18141;DHT22;9196;49.194;12.526;2023-05-07T08:48:03;17.00;99.90
18141;DHT22;9196;49.194;12.526;2023-05-07T08:50:35;17.10;99.90
18141;DHT22;9196;49.194;12.526;2023-05-07T08:53:03;17.10;99.90
18141;DHT22;9196;49.194;12.526;2023-05-07T08:55:29;17.00;99.90
18141;DHT22;9196;49.194;12.526;2023-05-07T08:57:56;17.00;99.90
18141;DHT22;9196;49.194;12.526;2023-05-07T09:00:23;17.00;99.90
18141;DHT22;9196;49.194;12.526;2023-05-07T09:02:50;17.10;99.90
18141;DHT22;9196;49.194;12.526;2023-05-07T09:05:17;17.10;99.90
18141;DHT22;9196;49.194;12.526;2023-05-07T09:07:45;17.00;99.90
18141;DHT22;9196;49.194;12.526;2023-05-07T09:10:13;17.00;99.90
18141;DHT22;9196;49.194;12.526;2023-05-07T09:12:40;16.90;99.90
18141;DHT22;9196;49.194;12.526;2023-05-07T09:15:07;17.00;99.90
18141;DHT22;9196;49.194;12.526;2023-05-07T09:17:34;17.00;99.90
18141;DHT22;9196;49.194;12.526;2023-05-07T09:20:05;17.00;99.90
18141;DHT22;9196;49.194;12.526;2023-05-07T09:22:33;16.80;99.90
18141;DHT22;9196;49.194;12.526;2023-05-07T09:25:01;16.90;99.90
18141;DHT22;9196;49.194;12.526;2023-05-07T09:27:28;17.00;99.90
18141;DHT22;9196;49.194;12.526;2023-05-07T09:29:55;17.10;99.90
18141;DHT22;9196;49.194;12.526;2023-05-07T09:32:22;17.10;99.90
18141;DHT22;9196;49.194;12.526;2023-05-07T09:34:48;17.00;99.90
18141;DHT22;9196;49.194;12.526;2023-05-07T09:37:15;16.80;99.90
18141;DHT22;9196;49.194;12.526;2023-05-07T09:39:44;16.70;99.90
18141;DHT22;9196;49.194;12.526;2023-05-07T09:42:13;16.60;99.90
18141;DHT22;9196;49.194;12.526;2023-05-07T09:44:40;16.70;99.90
18141;DHT22;9196;49.194;12.526;2023-05-07T09:47:08;16.80;99.90
18141;DHT22;9196;49.194;12.526;2023-05-07T09:49:35;17.00;99.90
18141;DHT22;9196;49.194;12.526;2023-05-07T09:52:04;17.20;99.90
18141;DHT22;9196;49.194;12.526;2023-05-07T09:54:33;17.30;99.90
18141;DHT22;9196;49.194;12.526;2023-05-07T09:57:01;17.20;99.90
18141;DHT22;9196;49.194;12.526;2023-05-07T09:59:31;17.30;99.90
18141;DHT22;9196;49.194;12.526;2023-05-07T10:01:59;17.30;99.90
18141;DHT22;9196;49.194;12.526;2023-05-07T10:04:27;17.50;99.90
18141;DHT22;9196;49.194;12.526;2023-05-07T10:06:54;17.60;99.90
18141;DHT22;9196;49.194;12.526;2023-05-07T10:09:22;17.70;99.90
18141;DHT22;9196;49.194;12.526;2023-05-07T10:11:51;17.70;99.90
18141;DHT22;9196;49.194;12.526;2023-05-07T10:14:20;17.80;99.90
18141;DHT22;9196;49.194;12.526;2023-05-07T10:16:48;17.90;99.90
18141;DHT22;9196;49.194;12.526;2023-05-07T10:19:16;18.00;99.90
18141;DHT22;9196;49.194;12.526;2023-05-07T10:21:48;18.20;99.90
18141;DHT22;9196;49.194;12.526;2023-05-07T10:24:19;18.30;99.90
18141;DHT22;9196;49.194;12.526;2023-05-07T10:26:50;18.40;99.90
18141;DHT22;9196;49.194;12.526;2023-05-07T10:29:24;18.60;99.90
18141;DHT22;9196;49.194;12.526;2023-05-07T10:31:59;18.50;99.90
18141;DHT22;9196;49.194;12.526;2023-05-07T10:34:33;18.40;99.90
18141;DHT22;9196;49.194;12.526;2023-05-07T10:37:02;18.30;99.90
18141;DHT22;9196;49.194;12.526;2023-05-07T10:39:29;18.20;99.90
18141;DHT22;9196;49.194;12.526;2023-05-07T10:41:56;18.10;99.90
18141;DHT22;9196;49.194;12.526;2023-05-07T10:44:27;18.10;99.90
18141;DHT22;9196;49.194;12.526;2023-05-07T10:47:08;18.00;99.90
18141;DHT22;9196;49.194;12.526;2023-05-07T10:49:36;18.00;99.90
18141;DHT22;9196;49.194;12.526;2023-05-07T10:52:13;18.20;99.90
18141;DHT22;9196;49.194;12.526;2023-05-07T10:54:41;18.50;99.90
18141;DHT22;9196;49.194;12.526;2023-05-07T10:57:38;18.70;99.90
18141;DHT22;9196;49.194;12.526;2023-05-07T11:00:41;19.00;99.90
18141;DHT22;9196;49.194;12.526;2023-05-07T11:03:10;19.10;99.90
18141;DHT22;9196;49.194;12.526;2023-05-07T11:05:37;19.20;99.90
18141;DHT22;9196;49.194;12.526;2023-05-07T11:08:05;19.40;99.90
18141;DHT22;9196;49.194;12.526;2023-05-07T11:10:48;19.60;99.90
18141;DHT22;9196;49.194;12.526;2023-05-07T11:13:16;19.80;99.90
18141;DHT22;9196;49.194;12.526;2023-05-07T11:15:44;19.90;99.90
18141;DHT22;9196;49.194;12.526;2023-05-07T11:18:14;19.80;99.90
18141;DHT22;9196;49.194;12.526;2023-05-07T11:20:48;19.90;99.90
18141;DHT22;9196;49.194;12.526;2023-05-07T11:23:56;19.90;99.90
18141;DHT22;9196;49.194;12.526;2023-05-07T11:26:28;20.00;99.90
18141;DHT22;9196;49.194;12.526;2023-05-07T11:28:55;20.10;99.90
18141;DHT22;9196;49.194;12.526;2023-05-07T11:31:25;20.10;99.90
18141;DHT22;9196;49.194;12.526;2023-05-07T11:33:55;20.20;99.90
18141;DHT22;9196;49.194;12.526;2023-05-07T11:36:23;20.10;99.90
18141;DHT22;9196;49.194;12.526;2023-05-07T11:38:50;20.10;99.90
18141;DHT22;9196;49.194;12.526;2023-05-07T11:41:17;20.10;99.90
18141;DHT22;9196;49.194;12.526;2023-05-07T11:43:58;20.40;99.90
18141;DHT22;9196;49.194;12.526;2023-05-07T11:46:26;20.70;99.90
18141;DHT22;9196;49.194;12.526;2023-05-07T11:48:54;20.90;99.10
18141;DHT22;9196;49.194;12.526;2023-05-07T11:51:22;20.70;99.90
18141;DHT22;9196;49.194;12.526;2023-05-07T11:53:50;20.70;99.90
18141;DHT22;9196;49.194;12.526;2023-05-07T11:56:17;20.80;99.90
18141;DHT22;9196;49.194;12.526;2023-05-07T11:58:46;20.80;99.90
18141;DHT22;9196;49.194;12.526;2023-05-07T12:01:14;20.90;99.60
18141;DHT22;9196;49.194;12.526;2023-05-07T12:03:43;20.90;97.80
18141;DHT22;9196;49.194;12.526;2023-05-07T12:06:13;20.90;99.60
18141;DHT22;9196;49.194;12.526;2023-05-07T12:08:41;21.20;99.70
18141;DHT22;9196;49.194;12.526;2023-05-07T12:11:09;21.20;97.10
18141;DHT22;9196;49.194;12.526;2023-05-07T12:13:37;21.30;98.30
18141;DHT22;9196;49.194;12.526;2023-05-07T12:16:05;21.50;98.30
18141;DHT22;9196;49.194;12.526;2023-05-07T12:18:33;21.60;98.50
18141;DHT22;9196;49.194;12.526;2023-05-07T12:21:01;21.50;97.80
18141;DHT22;9196;49.194;12.526;2023-05-07T12:23:29;21.40;97.30
18141;DHT22;9196;49.194;12.526;2023-05-07T12:25:56;21.20;99.00
18141;DHT22;9196;49.194;12.526;2023-05-07T12:28:23;21.40;97.50
18141;DHT22;9196;49.194;12.526;2023-05-07T12:30:50;21.50;98.20
18141;DHT22;9196;49.194;12.526;2023-05-07T12:33:18;21.50;99.10
18141;DHT22;9196;49.194;12.526;2023-05-07T12:35:47;21.60;98.90
18141;DHT22;9196;49.194;12.526;2023-05-07T12:38:15;21.60;96.50
18141;DHT22;9196;49.194;12.526;2023-05-07T12:40:45;21.70;95.80
18141;DHT22;9196;49.194;12.526;2023-05-07T12:43:16;21.50;95.70
18141;DHT22;9196;49.194;12.526;2023-05-07T12:45:44;21.10;96.70
18141;DHT22;9196;49.194;12.526;2023-05-07T12:48:11;21.00;97.10
18141;DHT22;9196;49.194;12.526;2023-05-07T12:50:38;20.90;97.50
18141;DHT22;9196;49.194;12.526;2023-05-07T12:53:06;20.70;97.50
18141;DHT22;9196;49.194;12.526;2023-05-07T12:55:41;20.80;98.30
18141;DHT22;9196;49.194;12.526;2023-05-07T12:58:15;20.80;97.10
18141;DHT22;9196;49.194;12.526;2023-05-07T13:00:42;20.90;97.60
18141;DHT22;9196;49.194;12.526;2023-05-07T13:03:09;21.10;97.10
18141;DHT22;9196;49.194;12.526;2023-05-07T13:05:36;21.20;97.60
18141;DHT22;9196;49.194;12.526;2023-05-07T13:08:03;21.30;96.20
18141;DHT22;9196;49.194;12.526;2023-05-07T13:10:30;21.20;95.50
18141;DHT22;9196;49.194;12.526;2023-05-07T13:12:56;21.30;95.80
18141;DHT22;9196;49.194;12.526;2023-05-07T13:15:24;21.30;96.50
18141;DHT22;9196;49.194;12.526;2023-05-07T13:17:52;21.40;96.60
18141;DHT22;9196;49.194;12.526;2023-05-07T13:20:19;21.60;97.10
18141;DHT22;9196;49.194;12.526;2023-05-07T13:22:46;21.40;96.50
18141;DHT22;9196;49.194;12.526;2023-05-07T13:25:12;21.50;96.30
18141;DHT22;9196;49.194;12.526;2023-05-07T13:27:39;21.60;96.30
18141;DHT22;9196;49.194;12.526;2023-05-07T13:30:07;21.90;96.10
18141;DHT22;9196;49.194;12.526;2023-05-07T13:32:35;22.10;95.90
18141;DHT22;9196;49.194;12.526;2023-05-07T13:35:01;22.20;95.20
18141;DHT22;9196;49.194;12.526;2023-05-07T13:37:28;22.30;95.20
18141;DHT22;9196;49.194;12.526;2023-05-07T13:39:55;22.10;94.50
18141;DHT22;9196;49.194;12.526;2023-05-07T13:42:22;22.30;94.90
18141;DHT22;9196;49.194;12.526;2023-05-07T13:44:48;22.10;94.80
18141;DHT22;9196;49.194;12.526;2023-05-07T13:47:15;22.10;94.60
18141;DHT22;9196;49.194;12.526;2023-05-07T13:49:44;22.20;93.10
18141;DHT22;9196;49.194;12.526;2023-05-07T13:52:10;22.10;91.90
18141;DHT22;9196;49.194;12.526;2023-05-07T13:54:37;22.10;91.20
18141;DHT22;9196;49.194;12.526;2023-05-07T13:57:04;22.00;93.00
18141;DHT22;9196;49.194;12.526;2023-05-07T13:59:31;21.90;93.90
18141;DHT22;9196;49.194;12.526;2023-05-07T14:01:58;21.90;94.00
18141;DHT22;9196;49.194;12.526;2023-05-07T14:04:25;22.00;93.60
18141;DHT22;9196;49.194;12.526;2023-05-07T14:06:53;22.00;93.00
18141;DHT22;9196;49.194;12.526;2023-05-07T14:09:20;21.90;93.40
18141;DHT22;9196;49.194;12.526;2023-05-07T14:11:47;21.90;93.80
18141;DHT22;9196;49.194;12.526;2023-05-07T14:14:16;22.00;93.70
18141;DHT22;9196;49.194;12.526;2023-05-07T14:16:43;22.00;93.30
18141;DHT22;9196;49.194;12.526;2023-05-07T14:19:10;22.00;93.10
18141;DHT22;9196;49.194;12.526;2023-05-07T14:21:37;21.90;93.30
18141;DHT22;9196;49.194;12.526;2023-05-07T14:24:06;21.80;93.80
18141;DHT22;9196;49.194;12.526;2023-05-07T14:26:33;21.90;94.00
18141;DHT22;9196;49.194;12.526;2023-05-07T14:29:00;21.90;93.30
18141;DHT22;9196;49.194;12.526;2023-05-07T14:31:26;21.80;94.40
18141;DHT22;9196;49.194;12.526;2023-05-07T14:33:53;22.00;94.70
18141;DHT22;9196;49.194;12.526;2023-05-07T14:36:20;21.80;94.00
18141;DHT22;9196;49.194;12.526;2023-05-07T14:38:48;21.80;93.90
18141;DHT22;9196;49.194;12.526;2023-05-07T14:41:16;22.00;94.30
18141;DHT22;9196;49.194;12.526;2023-05-07T14:43:43;22.00;93.20
18141;DHT22;9196;49.194;12.526;2023-05-07T14:46:15;22.10;93.60
18141;DHT22;9196;49.194;12.526;2023-05-07T14:48:43;22.10;93.00
18141;DHT22;9196;49.194;12.526;2023-05-07T14:51:10;21.70;93.30
18141;DHT22;9196;49.194;12.526;2023-05-07T14:53:37;21.70;94.00
18141;DHT22;9196;49.194;12.526;2023-05-07T14:56:04;21.70;93.50
18141;DHT22;9196;49.194;12.526;2023-05-07T14:58:33;21.70;93.40
18141;DHT22;9196;49.194;12.526;2023-05-07T15:01:00;21.70;93.60
18141;DHT22;9196;49.194;12.526;2023-05-07T15:03:27;21.70;93.90
18141;DHT22;9196;49.194;12.526;2023-05-07T15:05:54;21.60;94.00
18141;DHT22;9196;49.194;12.526;2023-05-07T15:08:21;21.70;94.10
18141;DHT22;9196;49.194;12.526;2023-05-07T15:10:48;21.70;94.40
18141;DHT22;9196;49.194;12.526;2023-05-07T15:13:15;21.70;95.10
18141;DHT22;9196;49.194;12.526;2023-05-07T15:15:43;22.00;94.80
18141;DHT22;9196;49.194;12.526;2023-05-07T15:18:10;22.10;94.60
18141;DHT22;9196;49.194;12.526;2023-05-07T15:20:37;22.00;93.40
18141;DHT22;9196;49.194;12.526;2023-05-07T15:23:04;21.90;93.40
18141;DHT22;9196;49.194;12.526;2023-05-07T15:25:35;21.70;93.40
18141;DHT22;9196;49.194;12.526;2023-05-07T15:28:02;21.20;94.40
18141;DHT22;9196;49.194;12.526;2023-05-07T15:30:29;21.20;94.20
18141;DHT22;9196;49.194;12.526;2023-05-07T15:32:57;21.30;94.20
18141;DHT22;9196;49.194;12.526;2023-05-07T15:35:24;21.30;93.20
18141;DHT22;9196;49.194;12.526;2023-05-07T15:37:51;21.20;93.60
18141;DHT22;9196;49.194;12.526;2023-05-07T15:40:18;21.30;94.20